Current Weather

King Abdulaziz Ab

King Abdulaziz Ab, Saudi Arabia (OEDR)

Report from: Tuesday, August 16, 2022 10:00 AM +03
Current time: Tuesday, August 16, 2022 10:27 AM +03

Nearby weather
Weather history
Weather forecast

Temperature43.0°C (109.4°F)
Heat index41.8°C (107.3°F)
Dew point11.0°C (51.8°F)
Winds Calm
Clouds Sky clear
Altimeter29.47 in.Hg (998 mB)
Relative humidity15 %
Density altitude3,822 ft. (1,165 m)
Remarks Ceiling and visibility OK
No significant changes expected in the next two hours
Flight conditions Visual Meteorological Conditions
Raw dataOEDR 160700Z 00000KT CAVOK 43/11 Q0998 NOSIG
An error has occurred. This application may no longer respond until reloaded. Reload 🗙